createdAt,value
2023-02-11T00:00:04.046Z,5.37
2023-02-11T00:01:04.385Z,6.7
2023-02-11T00:02:04.170Z,6.97
2023-02-11T00:03:04.767Z,8.26
2023-02-11T00:04:04.059Z,5.44
2023-02-11T00:05:03.716Z,8.76
2023-02-11T00:06:04.273Z,5.64
2023-02-11T00:07:03.889Z,7.36
2023-02-11T00:08:03.500Z,6.76
2023-02-11T00:09:04.315Z,8.82
2023-02-11T00:10:03.830Z,5.06
2023-02-11T00:11:04.574Z,5.59
2023-02-11T00:12:04.321Z,6.82
2023-02-11T00:13:03.932Z,6.42
2023-02-11T00:14:04.484Z,7.24
2023-02-11T00:15:04.001Z,7.56
2023-02-11T00:16:03.787Z,8.32
2023-02-11T00:17:04.775Z,8.32
2023-02-11T00:18:04.192Z,6.67
2023-02-11T00:19:03.931Z,6.67
2023-02-11T00:20:06.608Z,5.71
2023-02-11T00:21:04.157Z,4.68
2023-02-11T00:22:03.734Z,8.24
2023-02-11T00:23:04.535Z,8.16
2023-02-11T00:24:03.778Z,9.05
2023-02-11T00:25:03.743Z,7.36
2023-02-11T00:26:04.390Z,6.74
2023-02-11T00:27:04.112Z,9.41
2023-02-11T00:28:03.861Z,8.61
2023-02-11T00:29:04.465Z,5.47
2023-02-11T00:30:04.021Z,5.88
2023-02-11T00:31:04.275Z,7.21
2023-02-11T00:32:03.806Z,7.61
2023-02-11T00:33:04.314Z,7.92
2023-02-11T00:34:03.929Z,7.16
2023-02-11T00:35:04.653Z,6.12
2023-02-11T00:36:04.072Z,4.77
2023-02-11T00:37:03.685Z,7.11
2023-02-11T00:38:04.387Z,5.31
2023-02-11T00:39:03.888Z,5.62
2023-02-11T00:40:08.339Z,5.85
2023-02-11T00:41:04.121Z,4.06
2023-02-11T00:42:03.806Z,4.74
2023-02-11T00:43:04.390Z,6.64
2023-02-11T00:44:03.861Z,6.09
2023-02-11T00:45:03.648Z,8.01
2023-02-11T00:46:04.100Z,4.89
2023-02-11T00:47:04.312Z,6.01
2023-02-11T00:48:04.025Z,7.76
2023-02-11T00:49:03.598Z,4.69
2023-02-11T00:50:04.204Z,5.17
2023-02-11T00:51:03.947Z,6.02
2023-02-11T00:52:04.552Z,5.98
2023-02-11T00:53:04.066Z,6.82
2023-02-11T00:54:03.714Z,6.54
2023-02-11T00:55:04.413Z,4.84
2023-02-11T00:56:04.158Z,5.46
2023-02-11T00:57:03.706Z,4.55
2023-02-11T00:58:04.377Z,7.41
2023-02-11T00:59:04.009Z,6.21
2023-02-11T01:00:03.756Z,5.71
2023-02-11T01:01:04.411Z,6.46
2023-02-11T01:02:04.042Z,7.94
2023-02-11T01:03:04.652Z,5.12
2023-02-11T01:04:03.832Z,6.14
2023-02-11T01:05:04.673Z,6.61
2023-02-11T01:06:04.346Z,4.55
2023-02-11T01:07:03.948Z,5.38
2023-02-11T01:08:03.739Z,5.38
2023-02-11T01:09:04.386Z,6.52
2023-02-11T01:10:04.005Z,5.42
2023-02-11T01:11:04.415Z,6.43
2023-02-11T01:12:04.322Z,4.92
2023-02-11T01:13:04.061Z,4.93
2023-02-11T01:14:03.867Z,5.26
2023-02-11T01:15:04.522Z,5.02
2023-02-11T01:16:04.223Z,5.19
2023-02-11T01:17:03.528Z,6.19
2023-02-11T01:18:03.600Z,4.74
2023-02-11T01:19:04.238Z,4.35
2023-02-11T01:20:03.674Z,6.36
2023-02-11T01:21:04.305Z,5.39
2023-02-11T01:22:03.457Z,6.11
2023-02-11T01:23:04.333Z,5.51
2023-02-11T01:24:03.802Z,5.56
2023-02-11T01:25:04.408Z,4.96
2023-02-11T01:26:03.869Z,4.02
2023-02-11T01:27:03.748Z,7.21
2023-02-11T01:28:04.431Z,6.53
2023-02-11T01:29:03.778Z,6.01
2023-02-11T01:30:04.331Z,5.65
2023-02-11T01:31:03.821Z,6.35
2023-02-11T01:32:04.442Z,5.49
2023-02-11T01:33:04.125Z,4.59
2023-02-11T01:34:03.736Z,5.51
2023-02-11T01:35:04.555Z,4.59
2023-02-11T01:36:04.062Z,7.62
2023-02-11T01:37:03.502Z,5.95
2023-02-11T01:38:04.355Z,5.95
2023-02-11T01:39:04.027Z,5.33
2023-02-11T01:40:03.689Z,6.33
2023-02-11T01:41:04.501Z,9.11
2023-02-11T01:42:03.683Z,6.49
2023-02-11T01:43:03.710Z,6.92
2023-02-11T01:44:04.083Z,7.24
2023-02-11T01:45:03.755Z,6.12
2023-02-11T01:46:03.810Z,5.27
2023-02-11T01:47:04.496Z,4.46
2023-02-11T01:48:04.170Z,6.94
2023-02-11T01:49:03.971Z,6.35
2023-02-11T01:50:04.458Z,6.35
2023-02-11T01:51:03.986Z,4.78
2023-02-11T01:52:03.802Z,6.94
2023-02-11T01:53:04.261Z,7.34
2023-02-11T01:54:03.853Z,7.21
2023-02-11T01:55:04.277Z,5.18
2023-02-11T01:56:03.764Z,6.33
2023-02-11T01:57:04.524Z,5.88
2023-02-11T01:58:04.098Z,8.36
2023-02-11T01:59:03.823Z,6.39
2023-02-11T02:00:04.452Z,6.39
2023-02-11T02:01:04.136Z,5.96
2023-02-11T02:02:03.946Z,5.86
2023-02-11T02:03:04.541Z,5.55
2023-02-11T02:04:04.219Z,5.54
2023-02-11T02:05:03.794Z,5.72
2023-02-11T02:06:04.466Z,5.85
2023-02-11T02:07:04.075Z,4.65
2023-02-11T02:08:03.881Z,5.26
2023-02-11T02:09:04.544Z,6.56
2023-02-11T02:10:04.232Z,5.11
2023-02-11T02:11:03.927Z,6.65
2023-02-11T02:12:04.588Z,5.84
2023-02-11T02:13:04.075Z,6.47
2023-02-11T02:14:03.544Z,6.62
2023-02-11T02:15:04.514Z,5.24
2023-02-11T02:16:04.784Z,5.27
2023-02-11T02:17:04.119Z,6.41
2023-02-11T02:18:03.817Z,7.69
2023-02-11T02:19:04.391Z,5.56
2023-02-11T02:20:04.229Z,5.98
2023-02-11T02:21:03.772Z,6.43
2023-02-11T02:22:04.215Z,6.36
2023-02-11T02:23:04.153Z,4.79
2023-02-11T02:24:03.771Z,5.29
2023-02-11T02:25:04.360Z,6.93
2023-02-11T02:26:03.907Z,7.65
2023-02-11T02:27:03.466Z,6.44
2023-02-11T02:28:04.344Z,4.05
2023-02-11T02:29:03.797Z,7.47
2023-02-11T02:30:04.564Z,8.71
2023-02-11T02:31:04.222Z,6.54
2023-02-11T02:32:03.765Z,7.38
2023-02-11T02:33:22.119Z,7.36
2023-02-11T02:34:04.379Z,6.52
2023-02-11T02:35:04.148Z,6.05
2023-02-11T02:36:03.943Z,6.76
2023-02-11T02:37:04.528Z,7.71
2023-02-11T02:38:04.245Z,8.27
2023-02-11T02:39:04.009Z,7.58
2023-02-11T02:40:04.475Z,7.57
2023-02-11T02:41:04.050Z,5.68
2023-02-11T02:42:03.642Z,4.98
2023-02-11T02:43:04.339Z,6.3
2023-02-11T02:44:04.146Z,5.97
2023-02-11T02:45:03.627Z,4.61
2023-02-11T02:46:04.020Z,8.19
2023-02-11T02:47:03.755Z,6.88
2023-02-11T02:48:04.519Z,6.88
2023-02-11T02:49:03.891Z,7.48
2023-02-11T02:50:03.768Z,7.31
2023-02-11T02:51:04.243Z,8.34
2023-02-11T02:52:04.018Z,6.73
2023-02-11T02:53:04.506Z,7.49
2023-02-11T02:54:04.084Z,7.81
2023-02-11T02:55:03.710Z,8.95
2023-02-11T02:56:04.254Z,7.25
2023-02-11T02:57:04.223Z,5.1
2023-02-11T02:58:03.570Z,6.5
2023-02-11T02:59:04.510Z,5.49
2023-02-11T03:00:04.087Z,5.9
2023-02-11T03:01:03.846Z,6.33
2023-02-11T03:02:04.244Z,6.57
2023-02-11T03:03:03.879Z,6.67
2023-02-11T03:04:04.711Z,6.71
2023-02-11T03:05:04.130Z,5.95
2023-02-11T03:06:03.809Z,5.75
2023-02-11T03:07:03.676Z,5.94
2023-02-11T03:08:04.256Z,6.26
2023-02-11T03:09:03.893Z,7.63
2023-02-11T03:10:04.586Z,5.69
2023-02-11T03:11:04.185Z,6.74
2023-02-11T03:12:03.822Z,5.51
2023-02-11T03:13:04.618Z,5.34
2023-02-11T03:14:04.074Z,6.68
2023-02-11T03:15:03.694Z,6.1
2023-02-11T03:16:04.071Z,7.04
2023-02-11T03:17:03.730Z,5.55
2023-02-11T03:18:04.413Z,5.79
2023-02-11T03:19:04.188Z,7.05
2023-02-11T03:20:03.855Z,5.13
2023-02-11T03:21:04.507Z,5.53
2023-02-11T03:22:04.139Z,6.48
2023-02-11T03:23:03.749Z,8.36
2023-02-11T03:24:04.417Z,5.64
2023-02-11T03:25:04.019Z,8.82
2023-02-11T03:26:03.769Z,7.76
2023-02-11T03:27:04.403Z,6.8
2023-02-11T03:28:04.131Z,6.15
2023-02-11T03:29:03.659Z,6.61
2023-02-11T03:30:04.397Z,7.37
2023-02-11T03:31:03.732Z,8.36
2023-02-11T03:32:04.760Z,5.43
2023-02-11T03:33:04.166Z,6.21
2023-02-11T03:34:03.723Z,4.86
2023-02-11T03:35:04.362Z,5.01
2023-02-11T03:36:03.917Z,5.43
2023-02-11T03:37:04.474Z,6.21
2023-02-11T03:38:04.140Z,5.45
2023-02-11T03:39:03.628Z,4.85
2023-02-11T03:40:04.283Z,4.85
2023-02-11T03:41:03.865Z,7.22
2023-02-11T03:42:04.650Z,5.69
2023-02-11T03:43:04.178Z,4.09
2023-02-11T03:44:03.741Z,4.42
2023-02-11T03:45:04.363Z,3.96
2023-02-11T03:46:04.685Z,5.22
2023-02-11T03:47:04.263Z,5.05
2023-02-11T03:48:03.974Z,6.24
2023-02-11T03:49:04.607Z,4.06
2023-02-11T03:50:04.170Z,5.02
2023-02-11T03:51:03.749Z,5.71
2023-02-11T03:52:04.399Z,5.64
2023-02-11T03:53:04.057Z,8.28
2023-02-11T03:54:04.646Z,5.8
2023-02-11T03:55:04.221Z,6.76
2023-02-11T03:56:03.925Z,7.48
2023-02-11T03:57:03.509Z,6.74
2023-02-11T03:58:04.303Z,5.89
2023-02-11T03:59:03.765Z,6.34
2023-02-11T04:00:04.297Z,5.98
2023-02-11T04:01:04.705Z,5.72
2023-02-11T04:02:04.271Z,4.79
2023-02-11T04:03:04.078Z,6.74
2023-02-11T04:04:04.582Z,5.59
2023-02-11T04:05:04.091Z,4.91
2023-02-11T04:06:03.866Z,6.11
2023-02-11T04:07:04.458Z,6.32
2023-02-11T04:08:04.123Z,6.16
2023-02-11T04:09:03.530Z,5.76
2023-02-11T04:10:04.469Z,7.17
2023-02-11T04:11:03.906Z,7.02
2023-02-11T04:12:04.467Z,7.77
2023-02-11T04:13:04.193Z,6.72
2023-02-11T04:14:03.988Z,6.02
2023-02-11T04:15:03.671Z,5.86
2023-02-11T04:16:04.249Z,6.01
2023-02-11T04:17:03.701Z,4.88
2023-02-11T04:18:04.323Z,5.74
2023-02-11T04:19:03.772Z,5.08
2023-02-11T04:20:04.664Z,7.35
2023-02-11T04:21:04.113Z,6.35
2023-02-11T04:22:03.624Z,7.01
2023-02-11T04:23:04.349Z,5.09
2023-02-11T04:24:04.082Z,6.3
2023-02-11T04:25:03.784Z,6.64
2023-02-11T04:26:04.487Z,5.91
2023-02-11T04:27:03.823Z,7.36
2023-02-11T04:28:03.852Z,6.08
2023-02-11T04:29:04.147Z,6.08
2023-02-11T04:30:03.892Z,7.91
2023-02-11T04:31:04.501Z,4.95
2023-02-11T04:32:04.139Z,6.74
2023-02-11T04:33:03.698Z,5.76
2023-02-11T04:34:04.268Z,6.93
2023-02-11T04:35:03.631Z,6.95
2023-02-11T04:36:03.743Z,5.68
2023-02-11T04:37:04.313Z,6.48
2023-02-11T04:38:03.872Z,5.98
2023-02-11T04:39:03.492Z,6.21
2023-02-11T04:40:04.463Z,5.36
2023-02-11T04:41:03.923Z,5.72
2023-02-11T04:42:04.482Z,5.69
2023-02-11T04:43:04.159Z,6.06
2023-02-11T04:44:03.796Z,5.12
2023-02-11T04:45:04.498Z,5.78
2023-02-11T04:46:04.326Z,5.08
2023-02-11T04:47:03.827Z,6.35
2023-02-11T04:48:04.599Z,5.17
2023-02-11T04:49:04.125Z,6.43
2023-02-11T04:50:03.792Z,4.65
2023-02-11T04:51:04.269Z,5.34
2023-02-11T04:52:03.891Z,6.24
2023-02-11T04:53:03.560Z,5.18
2023-02-11T04:54:04.449Z,5.01
2023-02-11T04:55:04.040Z,5.85
2023-02-11T04:56:03.674Z,6.71
2023-02-11T04:57:04.455Z,5.86
2023-02-11T04:58:04.184Z,5.03
2023-02-11T04:59:03.773Z,5.43
2023-02-11T05:00:04.316Z,7.02
2023-02-11T05:01:03.798Z,6.12
2023-02-11T05:02:03.611Z,4.27
2023-02-11T05:03:04.363Z,5.88
2023-02-11T05:04:04.161Z,5.91
2023-02-11T05:05:04.538Z,4.86
2023-02-11T05:06:04.156Z,5.7
2023-02-11T05:07:03.732Z,6.1
2023-02-11T05:08:04.511Z,6.04
2023-02-11T05:09:04.120Z,6.39
2023-02-11T05:10:03.954Z,5.7
2023-02-11T05:11:04.472Z,5.59
2023-02-11T05:12:04.126Z,5.85
2023-02-11T05:13:03.694Z,4.63
2023-02-11T05:14:04.266Z,6.35
2023-02-11T05:15:03.879Z,5.23
2023-02-11T05:16:04.061Z,7.06
2023-02-11T05:17:03.917Z,3.61
2023-02-11T05:18:04.330Z,5.38
2023-02-11T05:19:04.072Z,5.39
2023-02-11T05:20:03.694Z,5.39
2023-02-11T05:21:04.245Z,5.7
2023-02-11T05:22:05.708Z,5.26
2023-02-11T05:23:04.238Z,6.18
2023-02-11T05:24:03.964Z,4.88
2023-02-11T05:25:03.650Z,6.7
2023-02-11T05:26:04.369Z,4.5
2023-02-11T05:27:03.991Z,5.54
2023-02-11T05:28:03.697Z,6.62
2023-02-11T05:29:04.243Z,6.56
2023-02-11T05:30:04.038Z,6.12
2023-02-11T05:31:04.196Z,6.81
2023-02-11T05:32:03.640Z,4.81
2023-02-11T05:33:04.188Z,5.92
2023-02-11T05:34:03.875Z,7.6
2023-02-11T05:35:04.446Z,6.77
2023-02-11T05:36:04.285Z,4.28
2023-02-11T05:37:03.808Z,6.46
2023-02-11T05:38:04.482Z,5.63
2023-02-11T05:39:03.953Z,5.52
2023-02-11T05:40:03.664Z,6.81
2023-02-11T05:41:04.305Z,5.07
2023-02-11T05:42:03.871Z,4.69
2023-02-11T05:43:03.636Z,7.32
2023-02-11T05:44:04.350Z,6.46
2023-02-11T05:45:04.064Z,4.27
2023-02-11T05:46:04.054Z,4.46
2023-02-11T05:47:04.810Z,5.48
2023-02-11T05:48:04.348Z,5.94
2023-02-11T05:49:03.911Z,4.98
2023-02-11T05:50:04.592Z,6.22
2023-02-11T05:51:04.273Z,5.41
2023-02-11T05:52:03.806Z,4.81
2023-02-11T05:53:04.714Z,5.66
2023-02-11T05:54:04.119Z,7.62
2023-02-11T05:55:03.784Z,6.21
2023-02-11T05:56:04.347Z,5.07
2023-02-11T05:57:03.812Z,4.81
2023-02-11T05:58:03.652Z,5.76
2023-02-11T05:59:04.313Z,5.79
2023-02-11T06:00:04.028Z,5.06
2023-02-11T06:01:03.491Z,5.22
2023-02-11T06:02:04.121Z,5.55
2023-02-11T06:03:03.701Z,4.84
2023-02-11T06:04:04.438Z,5.69
2023-02-11T06:05:04.169Z,4.86
2023-02-11T06:06:03.832Z,6.79
2023-02-11T06:07:04.357Z,4.48
2023-02-11T06:08:04.033Z,5.95
2023-02-11T06:09:03.619Z,5.13
2023-02-11T06:10:04.315Z,5.13
2023-02-11T06:11:04.052Z,6.01
2023-02-11T06:12:04.507Z,4.78
2023-02-11T06:13:04.210Z,4.22
2023-02-11T06:14:03.931Z,7.05
2023-02-11T06:15:04.555Z,5.05
2023-02-11T06:16:03.609Z,5.85
2023-02-11T06:17:04.287Z,5.16
2023-02-11T06:18:03.854Z,4.91
2023-02-11T06:19:03.604Z,4.8
2023-02-11T06:20:04.221Z,5.21
2023-02-11T06:21:03.758Z,6.29
2023-02-11T06:22:04.359Z,4.9
2023-02-11T06:23:04.196Z,4.46
2023-02-11T06:24:03.644Z,7.12
2023-02-11T06:25:04.679Z,6.24
2023-02-11T06:26:03.912Z,7.4
2023-02-11T06:27:03.863Z,5.83
2023-02-11T06:28:04.461Z,4.84
2023-02-11T06:29:03.765Z,5.19
2023-02-11T06:30:04.581Z,5.35
2023-02-11T06:31:04.005Z,4.55
2023-02-11T06:32:05.017Z,6.98
2023-02-11T06:33:03.831Z,4.21
2023-02-11T06:34:04.412Z,5.8
2023-02-11T06:35:03.915Z,5.7
2023-02-11T06:36:03.606Z,6.46
2023-02-11T06:37:04.242Z,5.68
2023-02-11T06:38:03.856Z,4.79
2023-02-11T06:39:04.422Z,5.57
2023-02-11T06:40:04.066Z,5.95
2023-02-11T06:41:03.642Z,5.18
2023-02-11T06:42:05.868Z,5.87
2023-02-11T06:43:04.100Z,4.61
2023-02-11T06:44:03.760Z,6.32
2023-02-11T06:45:04.573Z,6.95
2023-02-11T06:46:04.468Z,4.24
2023-02-11T06:47:04.004Z,4.05
2023-02-11T06:48:03.672Z,5.19
2023-02-11T06:49:04.405Z,5.44
2023-02-11T06:50:04.005Z,5.55
2023-02-11T06:51:04.490Z,8.24
2023-02-11T06:52:04.125Z,7.46
2023-02-11T06:53:03.828Z,6.48
2023-02-11T06:54:04.362Z,4.68
2023-02-11T06:55:04.264Z,4.61
2023-02-11T06:56:03.769Z,5.18
2023-02-11T06:57:04.406Z,6.54
2023-02-11T06:58:03.985Z,4.16
2023-02-11T06:59:04.496Z,5.51
2023-02-11T07:00:05.570Z,4.09
2023-02-11T07:01:04.149Z,4.09
2023-02-11T07:02:04.038Z,5.13
2023-02-11T07:03:03.704Z,4.89
2023-02-11T07:04:04.348Z,5.66
2023-02-11T07:05:03.829Z,4.61
2023-02-11T07:06:03.721Z,4.75
2023-02-11T07:07:04.175Z,4.86
2023-02-11T07:08:03.705Z,5.89
2023-02-11T07:09:04.628Z,6.1
2023-02-11T07:10:03.951Z,5.89
2023-02-11T07:11:03.781Z,4.25
2023-02-11T07:12:04.596Z,5.53
2023-02-11T07:13:03.996Z,6.74
2023-02-11T07:14:03.720Z,5.56
2023-02-11T07:15:04.397Z,4.91
2023-02-11T07:16:03.696Z,4.91
2023-02-11T07:17:04.189Z,7.08
2023-02-11T07:18:03.956Z,5.32
2023-02-11T07:19:04.418Z,5.52
2023-02-11T07:20:04.329Z,5.04
2023-02-11T07:21:03.797Z,6.49
2023-02-11T07:22:04.411Z,5.55
2023-02-11T07:23:04.090Z,5.75
2023-02-11T07:24:03.777Z,4.61
2023-02-11T07:25:04.312Z,4.14
2023-02-11T07:26:03.937Z,5.82
2023-02-11T07:27:03.369Z,4.18
2023-02-11T07:28:04.333Z,4.56
2023-02-11T07:29:03.989Z,5.51
2023-02-11T07:30:07.434Z,6.24
2023-02-11T07:31:04.350Z,5.61
2023-02-11T07:32:03.820Z,4.4
2023-02-11T07:33:04.271Z,4.43
2023-02-11T07:34:04.020Z,4.57
2023-02-11T07:35:04.773Z,5.3
2023-02-11T07:36:04.100Z,5.95
2023-02-11T07:37:03.682Z,4.18
2023-02-11T07:38:04.382Z,6.11
2023-02-11T07:39:04.111Z,5.5
2023-02-11T07:40:03.667Z,4.68
2023-02-11T07:41:04.445Z,4.72
2023-02-11T07:42:04.076Z,3.7
2023-02-11T07:43:03.934Z,4.41
2023-02-11T07:44:04.469Z,3.22
2023-02-11T07:45:04.184Z,2.91
2023-02-11T07:46:03.835Z,5.59
2023-02-11T07:47:04.670Z,6.15
2023-02-11T07:48:04.123Z,4.25
2023-02-11T07:49:03.504Z,3.18
2023-02-11T07:50:04.579Z,3.18
2023-02-11T07:51:04.104Z,4.52
2023-02-11T07:52:03.702Z,4.5
2023-02-11T07:53:04.450Z,4.68
2023-02-11T07:54:04.171Z,5.66
2023-02-11T07:55:06.780Z,5.15
2023-02-11T07:56:04.184Z,3.83
2023-02-11T07:57:03.896Z,3.91
2023-02-11T07:58:04.496Z,4.49
2023-02-11T07:59:04.042Z,5.15
2023-02-11T08:00:03.723Z,4.67
2023-02-11T08:01:04.415Z,4.87
2023-02-11T08:02:03.958Z,4.97
2023-02-11T08:03:04.680Z,5.06
2023-02-11T08:04:04.312Z,4.66
2023-02-11T08:05:03.914Z,5.41
2023-02-11T08:06:04.441Z,4.57
2023-02-11T08:07:03.999Z,5.65
2023-02-11T08:08:03.755Z,4.37
2023-02-11T08:09:04.366Z,4.12
2023-02-11T08:10:03.997Z,4.56
2023-02-11T08:11:03.694Z,3.46
2023-02-11T08:12:04.364Z,4.32
2023-02-11T08:13:04.011Z,3.87
2023-02-11T08:14:03.555Z,4.15
2023-02-11T08:15:04.358Z,4.01
2023-02-11T08:16:04.025Z,4.25
2023-02-11T08:17:04.554Z,4.54
2023-02-11T08:18:04.196Z,3.79
2023-02-11T08:19:03.750Z,3.45
2023-02-11T08:20:04.582Z,5.32
2023-02-11T08:21:04.090Z,6.19
2023-02-11T08:22:03.482Z,3.26
2023-02-11T08:23:04.040Z,7.37
2023-02-11T08:24:03.690Z,3.82
2023-02-11T08:25:04.472Z,4.69
2023-02-11T08:26:04.016Z,5.95
2023-02-11T08:27:03.677Z,2.23
2023-02-11T08:28:04.318Z,3.12
2023-02-11T08:29:03.798Z,3.44
2023-02-11T08:30:04.690Z,3.35
2023-02-11T08:31:04.135Z,3.96
2023-02-11T08:32:04.707Z,3.59
2023-02-11T08:33:04.109Z,4.38
2023-02-11T08:34:03.801Z,5.22
2023-02-11T08:35:04.540Z,3.26
2023-02-11T08:36:04.518Z,3.66
2023-02-11T08:37:04.265Z,3.21
2023-02-11T08:38:03.843Z,1.86
2023-02-11T08:39:20.585Z,3.58
2023-02-11T08:40:04.159Z,4.3
2023-02-11T08:41:03.740Z,4.3
2023-02-11T08:42:04.390Z,5.5
2023-02-11T08:43:05.726Z,3.33
2023-02-11T08:44:03.577Z,4.65
2023-02-11T08:45:04.269Z,3.86
2023-02-11T08:46:04.787Z,4.37
2023-02-11T08:47:03.923Z,5.01
2023-02-11T08:48:04.528Z,2.77
2023-02-11T08:49:04.071Z,3.08
2023-02-11T08:50:03.568Z,4.08
2023-02-11T08:51:04.356Z,3.64
2023-02-11T08:52:03.960Z,2.85
2023-02-11T08:53:04.546Z,2.85
2023-02-11T08:54:04.092Z,2.25
2023-02-11T08:55:03.780Z,2.42
2023-02-11T08:56:04.403Z,4.48
2023-02-11T08:57:04.183Z,3.82
2023-02-11T08:58:03.777Z,4.27
2023-02-11T08:59:04.328Z,3.34
2023-02-11T09:00:03.946Z,3.61
2023-02-11T09:01:04.455Z,3
2023-02-11T09:02:04.141Z,4.95
2023-02-11T09:03:03.814Z,5.43
2023-02-11T09:04:03.687Z,3.72
2023-02-11T09:05:04.117Z,4.15
2023-02-11T09:06:03.699Z,3.73
2023-02-11T09:07:04.448Z,4.85
2023-02-11T09:08:04.137Z,3.14
2023-02-11T09:09:03.497Z,4.29
2023-02-11T09:10:04.232Z,4.1
2023-02-11T09:11:03.922Z,3.45
2023-02-11T09:12:04.610Z,4.31
2023-02-11T09:13:04.177Z,3.16
2023-02-11T09:14:03.777Z,3.89
2023-02-11T09:15:04.508Z,3.89
2023-02-11T09:16:04.192Z,5.39
2023-02-11T09:17:03.993Z,4.2
2023-02-11T09:18:04.332Z,4.28
2023-02-11T09:19:04.222Z,4.14
2023-02-11T09:20:04.023Z,4.48
2023-02-11T09:21:04.584Z,3.98
2023-02-11T09:22:04.126Z,3.61
2023-02-11T09:23:03.773Z,4.61
2023-02-11T09:24:04.464Z,5.29
2023-02-11T09:25:04.164Z,4.86
2023-02-11T09:26:03.797Z,3.31
2023-02-11T09:27:04.563Z,4.64
2023-02-11T09:28:04.224Z,3.37
2023-02-11T09:29:03.668Z,3.98
2023-02-11T09:30:04.422Z,3.85
2023-02-11T09:31:04.359Z,3.65
2023-02-11T09:32:04.157Z,4.95
2023-02-11T09:33:04.275Z,4.95
2023-02-11T09:34:03.943Z,4.36
2023-02-11T09:35:04.548Z,4.04
2023-02-11T09:36:04.247Z,3.08
2023-02-11T09:37:03.947Z,3.66
2023-02-11T09:38:03.727Z,3.94
2023-02-11T09:39:04.328Z,2.82
2023-02-11T09:40:03.965Z,4.2
2023-02-11T09:41:04.448Z,3.35
2023-02-11T09:42:04.035Z,3.86
2023-02-11T09:43:06.237Z,3.05
2023-02-11T09:44:04.261Z,4.39
2023-02-11T09:45:03.902Z,4.87
2023-02-11T09:46:04.275Z,3.25
2023-02-11T09:47:03.771Z,4.34
2023-02-11T09:48:07.972Z,3.69
2023-02-11T09:49:04.058Z,3.72
2023-02-11T09:50:03.851Z,4.51
2023-02-11T09:51:04.683Z,3.08
2023-02-11T09:52:04.156Z,3.8
2023-02-11T09:53:03.796Z,3.81
2023-02-11T09:54:07.510Z,4.29
2023-02-11T09:55:04.070Z,3.38
2023-02-11T09:56:03.952Z,3.22
2023-02-11T09:57:04.552Z,3.5
2023-02-11T09:58:04.357Z,4.31
2023-02-11T09:59:04.029Z,3.58
2023-02-11T10:00:03.471Z,4.65
2023-02-11T10:01:03.930Z,3.51
2023-02-11T10:02:04.482Z,3.55
2023-02-11T10:03:04.106Z,2.41
2023-02-11T10:04:03.875Z,3.51
2023-02-11T10:05:04.496Z,3.98
2023-02-11T10:06:04.010Z,3.78
2023-02-11T10:07:03.614Z,2.92
2023-02-11T10:08:04.223Z,3.56
2023-02-11T10:09:04.086Z,3.39
2023-02-11T10:10:03.674Z,4.45
2023-02-11T10:11:04.235Z,5.42
2023-02-11T10:12:03.844Z,3.05
2023-02-11T10:13:04.326Z,3.78
2023-02-11T10:14:03.654Z,3.25
2023-02-11T10:15:04.339Z,2.56
2023-02-11T10:16:04.212Z,3.22
2023-02-11T10:17:03.609Z,4.34
2023-02-11T10:18:04.358Z,2.71
2023-02-11T10:19:03.940Z,3.31
2023-02-11T10:20:03.781Z,3.71
2023-02-11T10:21:04.561Z,2.54
2023-02-11T10:22:03.850Z,2.12
2023-02-11T10:23:03.696Z,4.03
2023-02-11T10:24:04.329Z,5.09
2023-02-11T10:25:03.608Z,5.09
2023-02-11T10:26:04.484Z,3.28
2023-02-11T10:27:04.207Z,4.18
2023-02-11T10:28:03.958Z,4.18
2023-02-11T10:29:04.504Z,4.07
2023-02-11T10:30:04.098Z,4.51
2023-02-11T10:31:05.080Z,3.59
2023-02-11T10:32:04.546Z,3.26
2023-02-11T10:33:04.130Z,3.21
2023-02-11T10:34:03.757Z,3.71
2023-02-11T10:35:04.258Z,4.45
2023-02-11T10:36:04.092Z,4.08
2023-02-11T10:37:03.500Z,4.79
2023-02-11T10:38:04.366Z,5.26
2023-02-11T10:39:03.881Z,4.57
2023-02-11T10:40:04.559Z,5.3
2023-02-11T10:41:04.036Z,5.99
2023-02-11T10:42:03.728Z,3.82
2023-02-11T10:43:04.132Z,6.54
2023-02-11T10:44:03.992Z,4.81
2023-02-11T10:45:04.590Z,4.06
2023-02-11T10:46:03.869Z,3.05
2023-02-11T10:47:04.356Z,2.79
2023-02-11T10:48:03.898Z,5.2
2023-02-11T10:49:04.415Z,4.4
2023-02-11T10:50:04.146Z,2.67
2023-02-11T10:51:03.726Z,3.96
2023-02-11T10:52:04.518Z,3.69
2023-02-11T10:53:04.249Z,4.04
2023-02-11T10:54:03.724Z,3.21
2023-02-11T10:55:04.453Z,3.88
2023-02-11T10:56:03.785Z,3.64
2023-02-11T10:57:04.432Z,5.02
2023-02-11T10:58:04.357Z,2.87
2023-02-11T10:59:03.851Z,3.93
2023-02-11T11:00:04.499Z,4.93
2023-02-11T11:01:19.116Z,6.26
2023-02-11T11:02:03.885Z,5.77
2023-02-11T11:03:04.558Z,5.8
2023-02-11T11:04:04.162Z,4.66
2023-02-11T11:05:03.744Z,4.83
2023-02-11T11:06:04.230Z,4.68
2023-02-11T11:07:04.076Z,4.88
2023-02-11T11:08:03.732Z,6.58
2023-02-11T11:09:04.180Z,6.2
2023-02-11T11:10:03.865Z,4.88
2023-02-11T11:11:04.517Z,4.85
2023-02-11T11:12:03.988Z,4.22
2023-02-11T11:13:03.745Z,5.64
2023-02-11T11:14:04.338Z,5.64
2023-02-11T11:15:04.074Z,5.8
2023-02-11T11:16:04.044Z,5.8
2023-02-11T11:17:04.399Z,6.89
2023-02-11T11:18:23.515Z,8.26
2023-02-11T11:19:03.675Z,5.34
2023-02-11T11:20:04.345Z,4.3
2023-02-11T11:21:03.883Z,4.71
2023-02-11T11:22:04.575Z,3.95
2023-02-11T11:23:04.194Z,4.32
2023-02-11T11:24:03.884Z,5.05
2023-02-11T11:25:04.372Z,8.31
2023-02-11T11:26:04.138Z,6.96
2023-02-11T11:27:03.806Z,4.65
2023-02-11T11:28:04.169Z,4.21
2023-02-11T11:29:03.826Z,3.15
2023-02-11T11:30:04.465Z,5.05
2023-02-11T11:31:04.329Z,4
2023-02-11T11:32:03.866Z,5.07
2023-02-11T11:33:04.339Z,5.36
2023-02-11T11:34:03.977Z,3.54
2023-02-11T11:35:04.586Z,3.69
2023-02-11T11:36:04.198Z,4.75
2023-02-11T11:37:03.949Z,3.64
2023-02-11T11:38:04.395Z,4.63
2023-02-11T11:39:04.208Z,4.41
2023-02-11T11:40:03.859Z,3.56
2023-02-11T11:41:04.423Z,3.31
2023-02-11T11:42:04.134Z,3.46
2023-02-11T11:43:03.787Z,4.88
2023-02-11T11:44:04.308Z,4.15
2023-02-11T11:45:04.083Z,3.61
2023-02-11T11:46:04.386Z,2.88
2023-02-11T11:47:03.919Z,4.56
2023-02-11T11:48:03.831Z,3.02
2023-02-11T11:49:04.293Z,2.48
2023-02-11T11:50:04.084Z,2.32
2023-02-11T11:51:03.562Z,2.58
2023-02-11T11:52:04.186Z,2.34
2023-02-11T11:53:03.765Z,3.39
2023-02-11T11:54:04.590Z,3.29
2023-02-11T11:55:04.117Z,4.02
2023-02-11T11:56:03.692Z,2.88
2023-02-11T11:57:04.404Z,2.65
2023-02-11T11:58:04.013Z,3.15
2023-02-11T11:59:03.919Z,2.81
2023-02-11T12:00:04.513Z,3.88
2023-02-11T12:01:04.309Z,3.81
2023-02-11T12:02:03.699Z,2.42
2023-02-11T12:03:04.434Z,2.54
2023-02-11T12:04:04.059Z,3.02
2023-02-11T12:05:03.560Z,3.02
2023-02-11T12:06:04.332Z,3.36
2023-02-11T12:07:04.014Z,3.32
2023-02-11T12:08:04.430Z,2.74
2023-02-11T12:09:04.090Z,2.76
2023-02-11T12:10:03.902Z,2.3
2023-02-11T12:11:04.475Z,3.34
2023-02-11T12:12:04.043Z,3.92
2023-02-11T12:13:03.530Z,2.18
2023-02-11T12:14:04.132Z,2.92
2023-02-11T12:15:03.802Z,2.66
2023-02-11T12:16:04.193Z,3.3
2023-02-11T12:17:04.627Z,2.6
2023-02-11T12:18:04.117Z,3.29
2023-02-11T12:19:03.622Z,2.99
2023-02-11T12:20:04.528Z,3.09
2023-02-11T12:21:04.215Z,2.52
2023-02-11T12:22:03.770Z,3.24
2023-02-11T12:23:04.473Z,3.34
2023-02-11T12:24:04.157Z,1.84
2023-02-11T12:25:03.534Z,2.68
2023-02-11T12:26:04.077Z,2.83
2023-02-11T12:27:03.729Z,2.66
2023-02-11T12:28:04.450Z,3.12
2023-02-11T12:29:03.951Z,3.18
2023-02-11T12:30:04.563Z,2.95
2023-02-11T12:31:03.849Z,3.57
2023-02-11T12:32:04.572Z,2.63
2023-02-11T12:33:04.241Z,2.98
2023-02-11T12:34:03.880Z,2.54
2023-02-11T12:35:03.639Z,3.38
2023-02-11T12:36:04.219Z,2.51
2023-02-11T12:37:06.856Z,2.34
2023-02-11T12:38:04.423Z,3.49
2023-02-11T12:39:04.026Z,2.14
2023-02-11T12:40:03.722Z,1.65
2023-02-11T12:41:04.250Z,1.72
2023-02-11T12:42:03.988Z,2.79
2023-02-11T12:43:04.881Z,2.34
2023-02-11T12:44:04.256Z,2.51
2023-02-11T12:45:03.981Z,2.78
2023-02-11T12:46:03.867Z,2.49
2023-02-11T12:47:04.555Z,2.48
2023-02-11T12:48:04.196Z,2.29
2023-02-11T12:49:03.799Z,2.44
2023-02-11T12:50:04.541Z,2.25
2023-02-11T12:51:03.995Z,2.27
2023-02-11T12:52:03.873Z,3.16
2023-02-11T12:53:04.354Z,3.51
2023-02-11T12:54:05.875Z,2.45
2023-02-11T12:55:03.742Z,2.46
2023-02-11T12:56:04.482Z,2.46
2023-02-11T12:57:03.950Z,1.51
2023-02-11T12:58:04.381Z,2.34
2023-02-11T12:59:04.242Z,2.34
2023-02-11T13:00:03.779Z,2.22
2023-02-11T13:01:04.001Z,2.64
2023-02-11T13:02:04.570Z,3.06
2023-02-11T13:03:04.113Z,2.84
2023-02-11T13:04:03.577Z,1.82
2023-02-11T13:05:04.423Z,3.32
2023-02-11T13:06:04.075Z,2.29
2023-02-11T13:07:03.492Z,2.37
2023-02-11T13:08:04.259Z,3.35
2023-02-11T13:09:04.199Z,3.46
2023-02-11T13:10:03.584Z,3.63
2023-02-11T13:11:04.119Z,2.2
2023-02-11T13:12:03.818Z,3.16
2023-02-11T13:13:04.458Z,2.24
2023-02-11T13:14:04.246Z,2.84
2023-02-11T13:15:03.898Z,2.58
2023-02-11T13:16:03.699Z,3.67
2023-02-11T13:17:04.411Z,2.78
2023-02-11T13:18:04.128Z,2.15
2023-02-11T13:19:04.004Z,1.9
2023-02-11T13:20:04.498Z,2.52